createdAt,value
2019-04-07T00:01:20.682Z,4.70
2019-04-07T00:03:49.513Z,4.80
2019-04-07T00:06:18.159Z,3.93
2019-04-07T00:08:47.524Z,3.80
2019-04-07T00:11:17.451Z,3.60
2019-04-07T00:13:45.933Z,3.60
2019-04-07T00:16:14.594Z,3.27
2019-04-07T00:18:43.211Z,3.40
2019-04-07T00:21:12.490Z,2.97
2019-04-07T00:23:41.748Z,3.00
2019-04-07T00:26:10.081Z,2.90
2019-04-07T00:28:39.787Z,3.07
2019-04-07T00:31:09.532Z,3.17
2019-04-07T00:33:38.174Z,2.70
2019-04-07T00:36:07.355Z,2.60
2019-04-07T00:38:36.212Z,2.97
2019-04-07T00:41:05.633Z,2.73
2019-04-07T00:43:35.163Z,2.70
2019-04-07T00:46:04.586Z,2.90
2019-04-07T00:48:33.327Z,2.70
2019-04-07T00:51:02.045Z,2.87
2019-04-07T00:53:30.958Z,2.60
2019-04-07T00:56:00.477Z,2.67
2019-04-07T00:58:30.376Z,2.70
2019-04-07T01:00:59.026Z,3.00
2019-04-07T01:03:27.730Z,2.57
2019-04-07T01:05:56.446Z,2.93
2019-04-07T01:08:25.095Z,2.70
2019-04-07T01:10:53.775Z,2.90
2019-04-07T01:13:22.189Z,3.67
2019-04-07T01:15:51.089Z,3.20
2019-04-07T01:18:19.604Z,3.47
2019-04-07T01:20:48.415Z,3.20
2019-04-07T01:23:17.034Z,3.03
2019-04-07T01:25:45.698Z,2.87
2019-04-07T01:28:14.765Z,3.27
2019-04-07T01:30:43.664Z,3.60
2019-04-07T01:33:12.741Z,3.43
2019-04-07T01:35:48.315Z,3.43
2019-04-07T01:38:12.564Z,3.20
2019-04-07T01:40:42.810Z,3.53
2019-04-07T01:43:21.703Z,3.50
2019-04-07T01:46:11.136Z,3.67
2019-04-07T01:49:18.383Z,3.40
2019-04-07T01:51:59.628Z,3.40
2019-04-07T01:54:50.034Z,3.80
2019-04-07T01:57:33.889Z,3.90
2019-04-07T02:00:28.001Z,3.53
2019-04-07T02:03:03.373Z,3.90
2019-04-07T02:05:58.446Z,3.90
2019-04-07T02:08:36.345Z,3.87
2019-04-07T02:11:23.282Z,3.80
2019-04-07T02:14:30.285Z,4.17
2019-04-07T02:17:30.339Z,3.70
2019-04-07T02:20:20.899Z,4.00
2019-04-07T02:23:13.248Z,3.80
2019-04-07T02:26:06.046Z,4.00
2019-04-07T02:28:41.790Z,4.33
2019-04-07T02:31:24.944Z,4.20
2019-04-07T02:34:27.659Z,4.00
2019-04-07T02:37:04.666Z,3.60
2019-04-07T02:39:42.174Z,3.63
2019-04-07T02:42:43.660Z,3.60
2019-04-07T02:45:34.702Z,3.57
2019-04-07T02:48:26.480Z,3.00
2019-04-07T02:51:17.973Z,3.53
2019-04-07T02:54:09.325Z,3.40
2019-04-07T02:56:50.816Z,3.33
2019-04-07T02:59:31.171Z,3.67
2019-04-07T03:02:18.181Z,3.50
2019-04-07T03:05:02.432Z,3.60
2019-04-07T03:07:50.963Z,3.50
2019-04-07T03:10:38.836Z,3.77
2019-04-07T03:13:35.755Z,3.73
2019-04-07T03:16:31.216Z,4.10
2019-04-07T03:19:08.787Z,3.90
2019-04-07T03:21:54.266Z,3.97
2019-04-07T03:24:51.682Z,3.60
2019-04-07T03:27:29.038Z,3.87
2019-04-07T03:30:20.776Z,3.60
2019-04-07T03:33:28.468Z,3.53
2019-04-07T03:36:23.211Z,3.80
2019-04-07T03:39:04.349Z,3.33
2019-04-07T03:41:47.642Z,3.67
2019-04-07T03:44:22.932Z,3.10
2019-04-07T03:47:09.168Z,3.30
2019-04-07T03:49:49.693Z,3.30
2019-04-07T03:52:37.852Z,2.90
2019-04-07T03:55:35.211Z,2.60
2019-04-07T03:58:26.137Z,3.03
2019-04-07T04:01:22.313Z,2.77
2019-04-07T04:04:13.741Z,3.00
2019-04-07T04:07:16.435Z,2.67
2019-04-07T04:09:39.112Z,2.70
2019-04-07T04:12:35.713Z,2.80
2019-04-07T04:15:10.566Z,2.70
2019-04-07T04:17:39.220Z,3.80
2019-04-07T04:20:08.402Z,3.00
2019-04-07T04:22:37.865Z,2.63
2019-04-07T04:25:06.809Z,3.10
2019-04-07T04:27:36.745Z,3.10
2019-04-07T04:30:07.107Z,3.10
2019-04-07T04:32:35.593Z,3.10
2019-04-07T04:35:04.592Z,3.17
2019-04-07T04:37:41.817Z,3.50
2019-04-07T04:40:05.029Z,3.30
2019-04-07T04:42:33.954Z,3.30
2019-04-07T04:45:02.681Z,3.33
2019-04-07T04:47:31.116Z,3.90
2019-04-07T04:49:59.856Z,4.10
2019-04-07T04:52:29.615Z,3.50
2019-04-07T04:54:58.337Z,3.50
2019-04-07T04:57:27.158Z,3.53
2019-04-07T04:59:56.018Z,3.77
2019-04-07T05:02:25.767Z,3.60
2019-04-07T05:04:54.342Z,4.23
2019-04-07T05:07:23.040Z,3.90
2019-04-07T05:09:54.204Z,4.60
2019-04-07T05:12:22.062Z,4.73
2019-04-07T05:14:50.392Z,5.27
2019-04-07T05:17:19.087Z,5.27
2019-04-07T05:19:47.787Z,5.40
2019-04-07T05:22:16.692Z,5.97
2019-04-07T05:24:45.513Z,5.60
2019-04-07T05:27:13.988Z,5.23
2019-04-07T05:29:42.587Z,5.27
2019-04-07T05:32:11.291Z,5.47
2019-04-07T05:34:40.236Z,5.67
2019-04-07T05:37:08.761Z,5.37
2019-04-07T05:39:37.259Z,5.80
2019-04-07T05:42:06.060Z,5.40
2019-04-07T05:44:35.550Z,5.80
2019-04-07T05:47:04.140Z,5.53
2019-04-07T05:49:33.449Z,5.83
2019-04-07T05:52:05.266Z,5.83
2019-04-07T05:54:32.858Z,5.87
2019-04-07T05:57:02.533Z,5.90
2019-04-07T05:59:31.883Z,5.60
2019-04-07T06:02:07.045Z,5.63
2019-04-07T06:04:44.267Z,5.77
2019-04-07T06:07:20.271Z,5.70
2019-04-07T06:10:06.961Z,5.77
2019-04-07T06:12:48.341Z,5.80
2019-04-07T06:15:24.712Z,5.63
2019-04-07T06:18:03.012Z,5.83
2019-04-07T06:20:38.211Z,5.70
2019-04-07T06:23:13.815Z,6.10
2019-04-07T06:25:50.109Z,5.20
2019-04-07T06:28:23.783Z,5.50
2019-04-07T06:30:59.450Z,5.17
2019-04-07T06:33:31.967Z,5.50
2019-04-07T06:36:06.817Z,4.80
2019-04-07T06:38:43.289Z,4.80
2019-04-07T06:41:18.865Z,4.30
2019-04-07T06:43:55.977Z,4.27
2019-04-07T06:46:49.129Z,4.13
2019-04-07T06:49:31.638Z,4.50
2019-04-07T06:52:43.350Z,4.47
2019-04-07T06:55:35.272Z,5.00
2019-04-07T06:58:41.810Z,4.40
2019-04-07T07:01:38.519Z,4.33
2019-04-07T07:04:35.469Z,4.60
2019-04-07T07:07:34.637Z,4.70
2019-04-07T07:10:27.434Z,4.73
2019-04-07T07:13:32.298Z,4.30
2019-04-07T07:16:36.134Z,4.20
2019-04-07T07:19:35.861Z,4.07
2019-04-07T07:22:18.638Z,4.00
2019-04-07T07:25:01.324Z,4.10
2019-04-07T07:27:40.742Z,4.03
2019-04-07T07:30:19.346Z,4.00
2019-04-07T07:32:57.587Z,3.67
2019-04-07T07:35:33.486Z,3.43
2019-04-07T07:38:12.607Z,3.83
2019-04-07T07:40:49.346Z,3.87
2019-04-07T07:43:27.926Z,3.43
2019-04-07T07:46:03.721Z,4.17
2019-04-07T07:48:44.564Z,4.10
2019-04-07T07:51:18.593Z,4.03
2019-04-07T07:53:51.722Z,3.90
2019-04-07T07:56:27.129Z,3.83
2019-04-07T07:59:01.814Z,3.50
2019-04-07T08:01:46.221Z,3.80
2019-04-07T08:04:24.941Z,3.57
2019-04-07T08:06:52.268Z,3.83
2019-04-07T08:09:26.073Z,3.50
2019-04-07T08:12:03.463Z,3.40
2019-04-07T08:14:37.118Z,3.20
2019-04-07T08:17:09.483Z,3.23
2019-04-07T08:19:44.522Z,3.63
2019-04-07T08:22:30.665Z,3.50
2019-04-07T08:25:06.385Z,3.40
2019-04-07T08:27:45.586Z,3.00
2019-04-07T08:30:28.765Z,3.40
2019-04-07T08:33:05.158Z,3.67
2019-04-07T08:35:51.245Z,3.53
2019-04-07T08:38:32.295Z,3.40
2019-04-07T08:41:10.137Z,3.80
2019-04-07T08:43:43.523Z,3.27
2019-04-07T08:46:20.001Z,4.47
2019-04-07T08:49:03.101Z,4.00
2019-04-07T08:51:40.427Z,4.33
2019-04-07T08:54:21.841Z,5.17
2019-04-07T08:57:00.191Z,5.50
2019-04-07T08:59:39.908Z,5.67
2019-04-07T09:02:13.667Z,7.03
2019-04-07T09:04:52.416Z,5.30
2019-04-07T09:07:33.521Z,7.30
2019-04-07T09:10:12.666Z,6.00
2019-04-07T09:12:49.940Z,7.30
2019-04-07T09:15:33.844Z,7.07
2019-04-07T09:18:21.721Z,6.50
2019-04-07T09:21:19.934Z,8.33
2019-04-07T09:24:12.572Z,6.73
2019-04-07T09:27:04.386Z,5.80
2019-04-07T09:29:42.191Z,8.17
2019-04-07T09:32:54.664Z,6.87
2019-04-07T09:35:56.453Z,6.77
2019-04-07T09:38:52.528Z,9.83
2019-04-07T09:41:59.691Z,10.30
2019-04-07T09:45:10.806Z,8.13
2019-04-07T09:48:07.367Z,6.03
2019-04-07T09:51:06.382Z,8.37
2019-04-07T09:53:57.451Z,7.50
2019-04-07T09:56:50.893Z,6.60
2019-04-07T09:59:50.908Z,7.20
2019-04-07T10:02:35.776Z,6.50
2019-04-07T10:05:48.557Z,6.10
2019-04-07T10:08:47.803Z,5.83
2019-04-07T10:11:45.033Z,5.47
2019-04-07T10:14:28.382Z,6.37
2019-04-07T10:17:17.699Z,5.60
2019-04-07T10:20:14.360Z,8.90
2019-04-07T10:23:05.650Z,5.10
2019-04-07T10:26:01.248Z,4.93
2019-04-07T10:28:53.206Z,5.03
2019-04-07T10:31:49.883Z,4.60
2019-04-07T10:34:39.384Z,4.50
2019-04-07T10:37:41.526Z,4.37
2019-04-07T10:40:37.922Z,4.40
2019-04-07T10:43:42.531Z,4.77
2019-04-07T10:46:38.100Z,4.67
2019-04-07T10:49:45.334Z,4.13
2019-04-07T10:52:43.826Z,3.93
2019-04-07T10:55:38.345Z,3.80
2019-04-07T10:58:26.507Z,4.17
2019-04-07T11:01:13.408Z,3.70
2019-04-07T11:04:12.683Z,4.00
2019-04-07T11:07:20.485Z,3.40
2019-04-07T11:10:29.392Z,3.03
2019-04-07T11:13:15.793Z,3.60
2019-04-07T11:16:22.939Z,2.50
2019-04-07T11:19:12.981Z,2.60
2019-04-07T11:22:06.743Z,2.87
2019-04-07T11:25:21.708Z,2.67
2019-04-07T11:28:17.752Z,2.30
2019-04-07T11:31:19.566Z,2.90
2019-04-07T11:34:08.827Z,2.97
2019-04-07T11:37:09.746Z,2.70
2019-04-07T11:40:06.338Z,2.90
2019-04-07T11:42:53.410Z,2.60
2019-04-07T11:46:03.061Z,16.63
2019-04-07T11:48:53.691Z,11.23
2019-04-07T11:51:49.501Z,5.13
2019-04-07T11:54:43.764Z,2.90
2019-04-07T11:57:35.873Z,2.33
2019-04-07T12:00:39.810Z,2.17
2019-04-07T12:03:27.969Z,2.60
2019-04-07T12:06:28.425Z,1.97
2019-04-07T12:09:25.812Z,2.30
2019-04-07T12:12:24.522Z,1.90
2019-04-07T12:15:26.671Z,2.40
2019-04-07T12:18:14.929Z,3.47
2019-04-07T12:21:00.900Z,2.20
2019-04-07T12:24:03.254Z,2.03
2019-04-07T12:27:03.623Z,2.10
2019-04-07T12:29:48.706Z,4.17
2019-04-07T12:32:43.524Z,1.70
2019-04-07T12:35:50.934Z,1.57
2019-04-07T12:38:47.864Z,2.20
2019-04-07T12:41:40.120Z,1.40
2019-04-07T12:44:28.945Z,1.30
2019-04-07T12:47:25.689Z,1.40
2019-04-07T12:50:18.836Z,1.43
2019-04-07T12:53:12.378Z,1.40
2019-04-07T12:56:22.050Z,1.30
2019-04-07T12:59:08.956Z,1.40
2019-04-07T13:02:00.845Z,1.63
2019-04-07T13:04:53.510Z,1.50
2019-04-07T13:07:50.230Z,2.10
2019-04-07T13:10:46.110Z,2.30
2019-04-07T13:13:42.792Z,4.33
2019-04-07T13:16:47.285Z,3.90
2019-04-07T13:19:33.215Z,3.83
2019-04-07T13:22:34.449Z,3.90
2019-04-07T13:25:37.434Z,3.40
2019-04-07T13:28:35.901Z,3.20
2019-04-07T13:31:34.076Z,3.50
2019-04-07T13:34:32.785Z,3.40
2019-04-07T13:37:33.114Z,2.80
2019-04-07T13:40:46.967Z,2.90
2019-04-07T13:43:42.198Z,3.10
2019-04-07T13:46:41.106Z,3.07
2019-04-07T13:49:28.910Z,3.10
2019-04-07T13:52:20.784Z,2.87
2019-04-07T13:55:18.359Z,3.13
2019-04-07T13:58:13.904Z,3.00
2019-04-07T14:01:18.579Z,2.67
2019-04-07T14:04:21.709Z,2.83
2019-04-07T14:07:18.064Z,3.30
2019-04-07T14:10:14.479Z,6.10
2019-04-07T14:13:06.230Z,9.33
2019-04-07T14:16:08.416Z,3.33
2019-04-07T14:19:08.798Z,6.60
2019-04-07T14:22:08.970Z,4.37
2019-04-07T14:25:09.099Z,4.17
2019-04-07T14:28:08.910Z,3.57
2019-04-07T14:31:10.769Z,4.27
2019-04-07T14:34:20.679Z,3.10
2019-04-07T14:37:40.787Z,6.47
2019-04-07T14:40:21.250Z,5.07
2019-04-07T14:43:07.158Z,3.10
2019-04-07T14:45:59.425Z,3.00
2019-04-07T14:48:52.480Z,3.00
2019-04-07T14:51:49.196Z,2.93
2019-04-07T14:54:42.224Z,2.20
2019-04-07T14:57:34.066Z,2.70
2019-04-07T15:00:29.176Z,2.67
2019-04-07T15:03:02.091Z,2.17
2019-04-07T15:05:38.758Z,2.00
2019-04-07T15:08:32.957Z,2.70
2019-04-07T15:11:34.249Z,1.87
2019-04-07T15:14:13.357Z,2.00
2019-04-07T15:16:46.330Z,2.00
2019-04-07T15:19:23.385Z,2.07
2019-04-07T15:22:01.856Z,1.87
2019-04-07T15:24:42.785Z,1.90
2019-04-07T15:27:16.744Z,1.80
2019-04-07T15:29:50.400Z,2.67
2019-04-07T15:32:35.887Z,1.90
2019-04-07T15:35:18.652Z,1.80
2019-04-07T15:38:07.656Z,2.00
2019-04-07T15:40:53.228Z,1.90
2019-04-07T15:43:46.394Z,1.80
2019-04-07T15:46:25.624Z,2.30
2019-04-07T15:49:08.737Z,2.00
2019-04-07T15:51:52.760Z,2.20
2019-04-07T15:54:37.827Z,2.20
2019-04-07T15:57:13.227Z,2.20
2019-04-07T15:59:56.132Z,2.60
2019-04-07T16:02:31.773Z,2.60
2019-04-07T16:05:08.077Z,2.17
2019-04-07T16:07:42.098Z,2.10
2019-04-07T16:10:21.256Z,2.27
2019-04-07T16:12:59.319Z,2.30
2019-04-07T16:15:37.187Z,2.20
2019-04-07T16:18:10.859Z,2.67
2019-04-07T16:20:45.632Z,2.33
2019-04-07T16:23:25.085Z,2.40
2019-04-07T16:26:00.839Z,3.20
2019-04-07T16:28:46.862Z,2.63
2019-04-07T16:31:24.264Z,2.63
2019-04-07T16:33:59.033Z,2.47
2019-04-07T16:36:43.374Z,2.50
2019-04-07T16:39:21.105Z,2.43
2019-04-07T16:42:03.200Z,3.03
2019-04-07T16:44:36.245Z,2.20
2019-04-07T16:47:21.024Z,2.60
2019-04-07T16:49:52.349Z,2.40
2019-04-07T16:52:32.855Z,2.80
2019-04-07T16:55:09.438Z,2.43
2019-04-07T16:57:50.518Z,2.97
2019-04-07T17:00:25.906Z,2.60
2019-04-07T17:03:02.467Z,2.50
2019-04-07T17:05:41.503Z,2.70
2019-04-07T17:08:22.506Z,2.63
2019-04-07T17:11:07.606Z,2.47
2019-04-07T17:13:44.936Z,2.70
2019-04-07T17:16:24.676Z,2.17
2019-04-07T17:18:56.550Z,2.23
2019-04-07T17:21:33.080Z,2.20
2019-04-07T17:24:11.237Z,2.53
2019-04-07T17:26:47.543Z,1.93
2019-04-07T17:29:28.597Z,2.33
2019-04-07T17:32:08.891Z,2.50
2019-04-07T17:34:55.010Z,2.40
2019-04-07T17:37:38.078Z,2.60
2019-04-07T17:40:15.998Z,2.77
2019-04-07T17:42:53.980Z,2.50
2019-04-07T17:45:56.527Z,2.50
2019-04-07T17:48:57.125Z,2.67
2019-04-07T17:51:42.220Z,2.73
2019-04-07T17:54:46.413Z,3.20
2019-04-07T17:57:36.613Z,3.60
2019-04-07T18:00:24.357Z,3.30
2019-04-07T18:03:17.449Z,4.60
2019-04-07T18:06:16.895Z,3.77
2019-04-07T18:09:12.775Z,3.30
2019-04-07T18:12:02.293Z,3.83
2019-04-07T18:14:57.009Z,3.67
2019-04-07T18:17:49.749Z,3.20
2019-04-07T18:20:39.556Z,3.30
2019-04-07T18:23:34.674Z,4.40
2019-04-07T18:26:18.774Z,3.30
2019-04-07T18:29:29.139Z,3.83
2019-04-07T18:32:25.352Z,3.70
2019-04-07T18:35:09.781Z,3.90
2019-04-07T18:37:59.019Z,3.43
2019-04-07T18:41:01.028Z,3.87
2019-04-07T18:43:57.969Z,3.50
2019-04-07T18:46:35.697Z,3.47
2019-04-07T18:49:46.462Z,3.80
2019-04-07T18:52:43.110Z,3.87
2019-04-07T18:55:37.217Z,3.30
2019-04-07T18:58:18.234Z,3.73
2019-04-07T19:01:11.743Z,3.90
2019-04-07T19:04:21.535Z,4.27
2019-04-07T19:07:16.705Z,3.73
2019-04-07T19:10:16.608Z,4.00
2019-04-07T19:13:24.534Z,4.40
2019-04-07T19:16:27.694Z,4.63
2019-04-07T19:19:20.041Z,5.53
2019-04-07T19:22:07.634Z,5.40
2019-04-07T19:25:11.319Z,6.43
2019-04-07T19:28:04.672Z,6.03
2019-04-07T19:31:01.093Z,5.60
2019-04-07T19:34:01.166Z,6.30
2019-04-07T19:37:00.688Z,5.93
2019-04-07T19:39:53.536Z,6.37
2019-04-07T19:43:03.970Z,7.13
2019-04-07T19:46:01.383Z,6.67
2019-04-07T19:49:02.312Z,6.50
2019-04-07T19:52:06.597Z,7.03
2019-04-07T19:55:01.519Z,7.13
2019-04-07T19:58:03.943Z,7.00
2019-04-07T20:00:54.275Z,7.30
2019-04-07T20:03:43.522Z,7.10
2019-04-07T20:06:34.990Z,6.97
2019-04-07T20:09:47.586Z,7.30
2019-04-07T20:12:58.919Z,7.60
2019-04-07T20:15:49.452Z,7.30
2019-04-07T20:18:37.418Z,7.77
2019-04-07T20:21:36.578Z,7.60
2019-04-07T20:24:17.386Z,7.60
2019-04-07T20:26:58.810Z,7.10
2019-04-07T20:29:43.498Z,7.63
2019-04-07T20:32:35.238Z,7.80
2019-04-07T20:35:15.983Z,7.40
2019-04-07T20:38:04.694Z,8.03
2019-04-07T20:41:12.051Z,8.00
2019-04-07T20:44:05.469Z,8.40
2019-04-07T20:47:01.636Z,8.43
2019-04-07T20:50:00.917Z,8.30
2019-04-07T20:52:36.870Z,8.70
2019-04-07T20:55:23.781Z,8.37
2019-04-07T20:58:19.595Z,8.27
2019-04-07T21:01:04.169Z,9.43
2019-04-07T21:04:05.126Z,9.20
2019-04-07T21:06:48.119Z,9.00
2019-04-07T21:09:36.386Z,10.53
2019-04-07T21:12:25.250Z,9.80
2019-04-07T21:15:17.188Z,9.70
2019-04-07T21:17:58.328Z,9.73
2019-04-07T21:20:34.190Z,10.20
2019-04-07T21:23:19.930Z,10.50
2019-04-07T21:26:07.953Z,10.20
2019-04-07T21:28:48.340Z,10.10
2019-04-07T21:31:46.738Z,10.60
2019-04-07T21:34:47.220Z,11.17
2019-04-07T21:37:32.605Z,10.83
2019-04-07T21:40:29.444Z,11.47
2019-04-07T21:43:29.368Z,10.10
2019-04-07T21:46:24.811Z,10.70
2019-04-07T21:49:25.789Z,10.00
2019-04-07T21:52:02.677Z,10.87
2019-04-07T21:54:51.479Z,10.23
2019-04-07T21:57:38.186Z,11.17
2019-04-07T22:00:31.997Z,11.17
2019-04-07T22:03:31.063Z,11.53
2019-04-07T22:06:08.850Z,11.63
2019-04-07T22:08:48.013Z,11.33
2019-04-07T22:11:16.544Z,12.33
2019-04-07T22:13:45.234Z,13.10
2019-04-07T22:16:14.275Z,13.57
2019-04-07T22:18:44.943Z,12.80
2019-04-07T22:21:13.808Z,12.73
2019-04-07T22:23:42.429Z,11.43
2019-04-07T22:26:16.384Z,12.37
2019-04-07T22:28:41.676Z,12.27
2019-04-07T22:31:12.759Z,11.87
2019-04-07T22:33:42.518Z,13.27
2019-04-07T22:36:13.264Z,13.50
2019-04-07T22:38:41.405Z,15.23
2019-04-07T22:41:11.195Z,14.70
2019-04-07T22:43:39.584Z,13.53
2019-04-07T22:46:16.863Z,13.77
2019-04-07T22:48:39.055Z,13.80
2019-04-07T22:51:12.057Z,13.60
2019-04-07T22:53:37.914Z,15.10
2019-04-07T22:56:07.827Z,15.47
2019-04-07T22:58:36.536Z,14.07
2019-04-07T23:01:05.100Z,13.67
2019-04-07T23:03:34.482Z,13.37
2019-04-07T23:06:03.189Z,12.03
2019-04-07T23:08:32.792Z,12.40
2019-04-07T23:11:02.167Z,12.60
2019-04-07T23:13:32.138Z,11.83
2019-04-07T23:16:10.045Z,11.90
2019-04-07T23:18:31.692Z,11.83
2019-04-07T23:21:01.109Z,12.07
2019-04-07T23:23:30.876Z,10.87
2019-04-07T23:25:59.946Z,10.93
2019-04-07T23:28:28.518Z,11.67
2019-04-07T23:30:57.196Z,12.03
2019-04-07T23:33:25.646Z,11.63
2019-04-07T23:35:55.450Z,13.83
2019-04-07T23:38:24.279Z,13.17
2019-04-07T23:40:53.535Z,12.47
2019-04-07T23:43:22.272Z,12.63
2019-04-07T23:45:51.725Z,13.87
2019-04-07T23:48:20.565Z,14.03
2019-04-07T23:50:49.844Z,15.27
2019-04-07T23:53:54.728Z,13.00
2019-04-07T23:56:24.071Z,13.23
2019-04-07T23:58:54.126Z,15.43
